createdAt,value
2018-05-06T00:01:27.740Z,102205.78
2018-05-06T00:03:54.403Z,102203.19
2018-05-06T00:06:21.040Z,102209.34
2018-05-06T00:08:47.852Z,102208.00
2018-05-06T00:11:14.668Z,102209.80
2018-05-06T00:13:40.484Z,102211.11
2018-05-06T00:16:06.330Z,102205.30
2018-05-06T00:18:32.140Z,102198.77
2018-05-06T00:20:58.338Z,102204.62
2018-05-06T00:23:25.081Z,102210.22
2018-05-06T00:25:50.881Z,102215.67
2018-05-06T00:28:16.680Z,102214.89
2018-05-06T00:30:43.388Z,102216.42
2018-05-06T00:33:10.135Z,102211.39
2018-05-06T00:35:36.740Z,102215.89
2018-05-06T00:38:03.508Z,102217.03
2018-05-06T00:40:29.311Z,102220.00
2018-05-06T00:42:56.080Z,102223.59
2018-05-06T00:45:22.897Z,102221.33
2018-05-06T00:47:49.585Z,102226.09
2018-05-06T00:50:16.445Z,102219.70
2018-05-06T00:52:42.248Z,102219.43
2018-05-06T00:55:09.052Z,102217.98
2018-05-06T00:57:34.888Z,102218.38
2018-05-06T01:00:00.685Z,102223.30
2018-05-06T01:02:26.536Z,102221.85
2018-05-06T01:04:52.336Z,102225.81
2018-05-06T01:07:18.152Z,102223.97
2018-05-06T01:09:43.952Z,102220.70
2018-05-06T01:12:09.752Z,102224.45
2018-05-06T01:14:36.360Z,102221.84
2018-05-06T01:17:02.159Z,102217.89
2018-05-06T01:19:27.950Z,102216.80
2018-05-06T01:21:53.747Z,102219.98
2018-05-06T01:24:19.585Z,102221.69
2018-05-06T01:26:45.420Z,102222.54
2018-05-06T01:29:11.233Z,102221.23
2018-05-06T01:31:37.038Z,102218.11
2018-05-06T01:34:02.864Z,102219.91
2018-05-06T01:36:28.813Z,102221.13
2018-05-06T01:38:54.617Z,102225.69
2018-05-06T01:41:20.469Z,102223.59
2018-05-06T01:43:46.287Z,102221.48
2018-05-06T01:46:12.089Z,102222.52
2018-05-06T01:48:37.895Z,102226.30
2018-05-06T01:51:03.692Z,102230.21
2018-05-06T01:53:29.488Z,102222.50
2018-05-06T01:55:55.308Z,102221.33
2018-05-06T01:58:21.104Z,102224.97
2018-05-06T02:00:46.946Z,102225.94
2018-05-06T02:03:12.749Z,102226.16
2018-05-06T02:05:38.551Z,102225.40
2018-05-06T02:08:04.381Z,102228.30
2018-05-06T02:10:30.268Z,102226.89
2018-05-06T02:12:56.069Z,102230.53
2018-05-06T02:15:21.876Z,102232.05
2018-05-06T02:17:47.693Z,102236.44
2018-05-06T02:20:13.496Z,102233.91
2018-05-06T02:22:39.296Z,102237.50
2018-05-06T02:25:05.125Z,102233.02
2018-05-06T02:27:30.965Z,102237.30
2018-05-06T02:29:56.765Z,102237.90
2018-05-06T02:32:22.616Z,102236.72
2018-05-06T02:34:48.552Z,102244.08
2018-05-06T02:37:14.494Z,102237.45
2018-05-06T02:39:40.336Z,102237.41
2018-05-06T02:42:06.136Z,102236.84
2018-05-06T02:44:32.000Z,102239.94
2018-05-06T02:46:57.828Z,102245.08
2018-05-06T02:49:23.656Z,102244.61
2018-05-06T02:51:49.472Z,102240.09
2018-05-06T02:54:15.308Z,102239.17
2018-05-06T02:56:41.111Z,102242.12
2018-05-06T02:59:06.908Z,102239.37
2018-05-06T03:01:32.728Z,102238.16
2018-05-06T03:03:58.529Z,102241.28
2018-05-06T03:06:24.397Z,102239.10
2018-05-06T03:08:50.200Z,102245.64
2018-05-06T03:11:16.046Z,102241.17
2018-05-06T03:13:41.849Z,102245.19
2018-05-06T03:16:07.664Z,102242.22
2018-05-06T03:18:33.476Z,102240.00
2018-05-06T03:20:59.360Z,102243.59
2018-05-06T03:23:25.197Z,102241.55
2018-05-06T03:25:52.071Z,102238.05
2018-05-06T03:28:17.916Z,102246.94
2018-05-06T03:30:43.740Z,102243.37
2018-05-06T03:33:09.677Z,102246.34
2018-05-06T03:35:35.480Z,102240.69
2018-05-06T03:38:01.320Z,102241.32
2018-05-06T03:40:27.136Z,102242.45
2018-05-06T03:42:52.941Z,102241.65
2018-05-06T03:45:18.741Z,102244.86
2018-05-06T03:47:44.544Z,102241.66
2018-05-06T03:50:10.381Z,102240.54
2018-05-06T03:52:36.177Z,102235.88
2018-05-06T03:55:02.023Z,102234.92
2018-05-06T03:57:34.117Z,102236.41
2018-05-06T04:00:06.188Z,102240.06
2018-05-06T04:02:38.024Z,102240.16
2018-05-06T04:05:03.863Z,102239.78
2018-05-06T04:07:29.689Z,102240.59
2018-05-06T04:09:55.777Z,102240.26
2018-05-06T04:12:21.577Z,102235.25
2018-05-06T04:14:47.377Z,102239.91
2018-05-06T04:17:13.184Z,102238.52
2018-05-06T04:19:38.993Z,102238.84
2018-05-06T04:22:04.833Z,102233.50
2018-05-06T04:24:30.673Z,102238.94
2018-05-06T04:26:56.473Z,102242.39
2018-05-06T04:29:22.275Z,102240.97
2018-05-06T04:31:48.088Z,102241.73
2018-05-06T04:34:13.892Z,102241.86
2018-05-06T04:36:39.732Z,102245.76
2018-05-06T04:39:05.529Z,102251.05
2018-05-06T04:41:31.379Z,102252.20
2018-05-06T04:43:57.191Z,102256.92
2018-05-06T04:46:22.999Z,102256.33
2018-05-06T04:48:48.800Z,102256.83
2018-05-06T04:51:14.600Z,102261.56
2018-05-06T04:53:40.397Z,102261.31
2018-05-06T04:56:06.201Z,102261.25
2018-05-06T04:58:32.009Z,102259.14
2018-05-06T05:00:57.808Z,102257.09
2018-05-06T05:03:23.604Z,102252.58
2018-05-06T05:05:49.433Z,102255.86
2018-05-06T05:08:15.240Z,102259.77
2018-05-06T05:10:41.040Z,102261.56
2018-05-06T05:13:06.844Z,102268.25
2018-05-06T05:15:32.749Z,102268.25
2018-05-06T05:17:58.552Z,102269.88
2018-05-06T05:20:24.365Z,102266.38
2018-05-06T05:22:50.181Z,102271.09
2018-05-06T05:25:15.983Z,102269.06
2018-05-06T05:27:41.784Z,102268.22
2018-05-06T05:30:07.633Z,102267.32
2018-05-06T05:32:33.436Z,102266.23
2018-05-06T05:34:59.238Z,102266.77
2018-05-06T05:37:25.089Z,102269.12
2018-05-06T05:39:50.897Z,102276.16
2018-05-06T05:42:16.701Z,102275.22
2018-05-06T05:44:42.500Z,102277.48
2018-05-06T05:47:08.304Z,102281.04
2018-05-06T05:49:34.224Z,102281.20
2018-05-06T05:52:00.024Z,102281.20
2018-05-06T05:54:25.828Z,102285.80
2018-05-06T05:56:51.679Z,102282.23
2018-05-06T05:59:17.485Z,102282.47
2018-05-06T06:01:43.297Z,102285.09
2018-05-06T06:04:09.213Z,102281.39
2018-05-06T06:06:35.024Z,102283.88
2018-05-06T06:09:00.854Z,102286.48
2018-05-06T06:11:26.664Z,102284.47
2018-05-06T06:13:52.492Z,102287.10
2018-05-06T06:16:18.297Z,102293.50
2018-05-06T06:18:44.096Z,102293.52
2018-05-06T06:21:09.937Z,102295.91
2018-05-06T06:23:35.733Z,102292.17
2018-05-06T06:26:01.733Z,102298.10
2018-05-06T06:28:27.532Z,102305.20
2018-05-06T06:30:53.381Z,102302.45
2018-05-06T06:33:19.192Z,102308.86
2018-05-06T06:35:44.998Z,102309.97
2018-05-06T06:38:10.840Z,102312.88
2018-05-06T06:40:36.648Z,102309.77
2018-05-06T06:43:02.566Z,102313.14
2018-05-06T06:45:28.369Z,102311.98
2018-05-06T06:47:54.206Z,102322.46
2018-05-06T06:50:20.008Z,102323.30
2018-05-06T06:52:45.828Z,102319.81
2018-05-06T06:55:11.628Z,102318.65
2018-05-06T06:57:37.486Z,102316.62
2018-05-06T07:00:03.309Z,102320.52
2018-05-06T07:02:29.177Z,102326.75
2018-05-06T07:04:54.980Z,102323.93
2018-05-06T07:07:20.784Z,102320.76
2018-05-06T07:09:46.584Z,102317.09
2018-05-06T07:12:12.408Z,102322.28
2018-05-06T07:14:38.205Z,102319.52
2018-05-06T07:17:04.008Z,102322.64
2018-05-06T07:19:29.818Z,102323.11
2018-05-06T07:21:55.787Z,102320.53
2018-05-06T07:24:21.609Z,102324.13
2018-05-06T07:26:47.425Z,102322.22
2018-05-06T07:29:13.239Z,102320.27
2018-05-06T07:31:39.060Z,102315.89
2018-05-06T07:34:04.921Z,102319.02
2018-05-06T07:36:30.788Z,102319.69
2018-05-06T07:38:56.596Z,102311.59
2018-05-06T07:41:22.432Z,102319.06
2018-05-06T07:43:48.237Z,102322.08
2018-05-06T07:46:14.037Z,102315.52
2018-05-06T07:48:39.848Z,102315.52
2018-05-06T07:51:12.573Z,102316.47
2018-05-06T07:53:38.388Z,102322.10
2018-05-06T07:56:04.192Z,102321.81
2018-05-06T07:58:29.996Z,102327.95
2018-05-06T08:00:55.840Z,102330.31
2018-05-06T08:03:21.649Z,102334.05
2018-05-06T08:05:47.449Z,102328.97
2018-05-06T08:08:13.334Z,102329.52
2018-05-06T08:10:39.142Z,102329.33
2018-05-06T08:13:04.951Z,102326.45
2018-05-06T08:15:31.410Z,102329.40
2018-05-06T08:17:57.281Z,102326.50
2018-05-06T08:20:23.151Z,102330.11
2018-05-06T08:22:49.034Z,102327.34
2018-05-06T08:25:14.841Z,102326.39
2018-05-06T08:27:41.613Z,102323.38
2018-05-06T08:30:07.416Z,102318.58
2018-05-06T08:32:33.220Z,102320.84
2018-05-06T08:34:59.025Z,102319.20
2018-05-06T08:37:24.869Z,102316.18
2018-05-06T08:39:50.718Z,102317.09
2018-05-06T08:42:16.554Z,102319.62
2018-05-06T08:44:42.358Z,102312.64
2018-05-06T08:47:08.184Z,102321.42
2018-05-06T08:49:33.985Z,102317.16
2018-05-06T08:51:59.790Z,102317.09
2018-05-06T08:54:25.713Z,102318.97
2018-05-06T08:56:51.632Z,102316.09
2018-05-06T08:59:17.487Z,102313.82
2018-05-06T09:01:43.285Z,102314.28
2018-05-06T09:04:09.094Z,102319.86
2018-05-06T09:06:34.942Z,102320.17
2018-05-06T09:09:01.234Z,102318.63
2018-05-06T09:11:27.040Z,102314.23
2018-05-06T09:13:52.874Z,102316.41
2018-05-06T09:16:18.677Z,102316.30
2018-05-06T09:18:44.487Z,102313.33
2018-05-06T09:21:10.293Z,102320.38
2018-05-06T09:23:36.101Z,102313.88
2018-05-06T09:26:01.905Z,102307.95
2018-05-06T09:28:27.705Z,102307.00
2018-05-06T09:30:53.527Z,102310.12
2018-05-06T09:33:19.329Z,102306.46
2018-05-06T09:35:45.136Z,102306.72
2018-05-06T09:38:10.945Z,102303.34
2018-05-06T09:40:36.801Z,102309.91
2018-05-06T09:43:02.597Z,102303.13
2018-05-06T09:45:28.400Z,102302.61
2018-05-06T09:47:54.256Z,102302.12
2018-05-06T09:50:20.056Z,102301.34
2018-05-06T09:52:45.896Z,102297.67
2018-05-06T09:55:11.693Z,102303.86
2018-05-06T09:57:37.493Z,102298.11
2018-05-06T10:00:03.317Z,102293.82
2018-05-06T10:02:29.115Z,102292.92
2018-05-06T10:04:54.924Z,102288.68
2018-05-06T10:07:20.736Z,102293.02
2018-05-06T10:09:46.549Z,102285.98
2018-05-06T10:12:12.361Z,102285.30
2018-05-06T10:14:38.161Z,102282.17
2018-05-06T10:17:03.998Z,102283.39
2018-05-06T10:19:29.806Z,102282.52
2018-05-06T10:21:55.620Z,102281.77
2018-05-06T10:24:21.423Z,102281.98
2018-05-06T10:26:47.272Z,102283.27
2018-05-06T10:29:13.076Z,102273.58
2018-05-06T10:31:38.881Z,102272.98
2018-05-06T10:34:04.686Z,102275.60
2018-05-06T10:36:30.520Z,102278.45
2018-05-06T10:38:56.321Z,102273.27
2018-05-06T10:41:22.123Z,102266.02
2018-05-06T10:43:47.926Z,102265.11
2018-05-06T10:46:13.773Z,102262.42
2018-05-06T10:48:39.635Z,102260.36
2018-05-06T10:51:05.509Z,102262.89
2018-05-06T10:53:31.324Z,102259.52
2018-05-06T10:55:57.174Z,102254.75
2018-05-06T10:58:22.976Z,102253.91
2018-05-06T11:00:48.818Z,102246.87
2018-05-06T11:03:14.665Z,102249.78
2018-05-06T11:05:40.468Z,102243.37
2018-05-06T11:08:06.280Z,102246.91
2018-05-06T11:10:32.096Z,102239.56
2018-05-06T11:12:57.906Z,102241.94
2018-05-06T11:15:23.745Z,102238.52
2018-05-06T11:17:49.594Z,102236.30
2018-05-06T11:20:17.181Z,102244.86
2018-05-06T11:22:43.301Z,102232.38
2018-05-06T11:25:09.133Z,102238.20
2018-05-06T11:27:34.946Z,102239.15
2018-05-06T11:30:00.806Z,102233.65
2018-05-06T11:32:26.769Z,102227.98
2018-05-06T11:34:52.644Z,102231.11
2018-05-06T11:37:18.485Z,102229.36
2018-05-06T11:39:44.289Z,102218.05
2018-05-06T11:42:10.137Z,102218.50
2018-05-06T11:44:35.973Z,102221.52
2018-05-06T11:47:01.776Z,102218.30
2018-05-06T11:49:27.581Z,102229.19
2018-05-06T11:51:53.423Z,102214.28
2018-05-06T11:54:19.277Z,102218.35
2018-05-06T11:56:45.075Z,102216.93
2018-05-06T11:59:10.920Z,102213.91
2018-05-06T12:01:36.856Z,102212.44
2018-05-06T12:04:02.702Z,102206.44
2018-05-06T12:06:28.648Z,102206.47
2018-05-06T12:08:54.481Z,102206.02
2018-05-06T12:11:21.285Z,102195.48
2018-05-06T12:13:47.112Z,102200.73
2018-05-06T12:16:13.546Z,102199.58
2018-05-06T12:18:39.489Z,102189.89
2018-05-06T12:21:05.393Z,102189.30
2018-05-06T12:23:31.353Z,102182.16
2018-05-06T12:25:57.160Z,102183.20
2018-05-06T12:28:22.967Z,102173.56
2018-05-06T12:30:48.804Z,102173.56
2018-05-06T12:33:14.772Z,102166.17
2018-05-06T12:35:40.614Z,102165.98
2018-05-06T12:38:06.496Z,102156.20
2018-05-06T12:40:32.313Z,102155.09
2018-05-06T12:42:58.118Z,102160.19
2018-05-06T12:45:23.950Z,102159.74
2018-05-06T12:47:49.773Z,102153.90
2018-05-06T12:50:16.224Z,102149.36
2018-05-06T12:52:42.100Z,102145.05
2018-05-06T12:55:07.905Z,102146.38
2018-05-06T12:57:33.808Z,102147.23
2018-05-06T12:59:59.619Z,102138.95
2018-05-06T13:02:25.573Z,102133.62
2018-05-06T13:04:51.400Z,102139.13
2018-05-06T13:07:17.281Z,102145.81
2018-05-06T13:09:43.041Z,102133.70
2018-05-06T13:12:08.847Z,102135.90
2018-05-06T13:14:34.658Z,102131.10
2018-05-06T13:17:00.460Z,102125.94
2018-05-06T13:19:26.264Z,102130.44
2018-05-06T13:21:52.077Z,102119.57
2018-05-06T13:24:17.886Z,102115.02
2018-05-06T13:26:43.712Z,102112.69
2018-05-06T13:29:09.541Z,102107.98
2018-05-06T13:31:35.469Z,102102.76
2018-05-06T13:34:01.371Z,102105.35
2018-05-06T13:36:27.180Z,102103.64
2018-05-06T13:38:53.005Z,102099.38
2018-05-06T13:41:18.860Z,102095.72
2018-05-06T13:43:44.683Z,102096.17
2018-05-06T13:46:10.572Z,102093.23
2018-05-06T13:48:36.348Z,102090.00
2018-05-06T13:51:02.152Z,102090.20
2018-05-06T13:53:27.969Z,102094.19
2018-05-06T13:55:53.777Z,102099.06
2018-05-06T13:58:19.640Z,102090.40
2018-05-06T14:00:45.457Z,102090.64
2018-05-06T14:03:11.260Z,102088.89
2018-05-06T14:05:37.638Z,102094.91
2018-05-06T14:08:03.461Z,102085.22
2018-05-06T14:10:29.272Z,102077.58
2018-05-06T14:12:55.940Z,102080.39
2018-05-06T14:15:21.780Z,102078.80
2018-05-06T14:17:47.579Z,102072.41
2018-05-06T14:20:13.453Z,102076.37
2018-05-06T14:22:39.264Z,102061.70
2018-05-06T14:25:05.920Z,102066.09
2018-05-06T14:27:31.720Z,102066.53
2018-05-06T14:29:58.542Z,102066.88
2018-05-06T14:32:24.344Z,102059.16
2018-05-06T14:34:50.177Z,102056.14
2018-05-06T14:37:15.980Z,102060.09
2018-05-06T14:39:42.949Z,102056.67
2018-05-06T14:42:08.757Z,102054.95
2018-05-06T14:44:34.557Z,102046.80
2018-05-06T14:47:06.648Z,102046.59
2018-05-06T14:49:32.449Z,102048.62
2018-05-06T14:51:58.260Z,102051.06
2018-05-06T14:54:24.061Z,102054.69
2018-05-06T14:56:49.902Z,102047.89
2018-05-06T14:59:15.704Z,102053.95
2018-05-06T15:01:41.533Z,102052.81
2018-05-06T15:04:07.361Z,102042.66
2018-05-06T15:06:33.213Z,102039.64
2018-05-06T15:08:59.516Z,102041.70
2018-05-06T15:11:25.325Z,102037.89
2018-05-06T15:13:51.158Z,102039.89
2018-05-06T15:16:16.980Z,102038.07
2018-05-06T15:18:42.777Z,102034.66
2018-05-06T15:21:08.630Z,102035.05
2018-05-06T15:23:34.481Z,102037.02
2018-05-06T15:26:00.324Z,102034.66
2018-05-06T15:28:26.164Z,102027.80
2018-05-06T15:30:51.964Z,102031.95
2018-05-06T15:33:17.905Z,102028.91
2018-05-06T15:35:43.709Z,102029.47
2018-05-06T15:38:09.524Z,102025.69
2018-05-06T15:40:35.373Z,102023.94
2018-05-06T15:43:01.214Z,102021.82
2018-05-06T15:45:27.017Z,102024.89
2018-05-06T15:47:52.865Z,102028.44
2018-05-06T15:50:18.770Z,102021.61
2018-05-06T15:52:44.600Z,102027.51
2018-05-06T15:55:10.400Z,102020.23
2018-05-06T15:57:36.245Z,102018.78
2018-05-06T16:00:02.064Z,102016.79
2018-05-06T16:05:19.148Z,102006.13
2018-05-06T16:07:44.986Z,102014.56
2018-05-06T16:10:10.812Z,102013.61
2018-05-06T16:12:36.656Z,102014.33
2018-05-06T16:15:02.477Z,102015.06
2018-05-06T16:17:29.244Z,102010.65
2018-05-06T16:19:55.057Z,102007.82
2018-05-06T16:22:20.864Z,102002.71
2018-05-06T16:24:46.741Z,102003.42
2018-05-06T16:27:12.605Z,102005.06
2018-05-06T16:29:38.495Z,102004.52
2018-05-06T16:32:04.245Z,101994.83
2018-05-06T16:34:30.048Z,102002.16
2018-05-06T16:36:55.895Z,102002.34
2018-05-06T16:39:21.740Z,102003.01
2018-05-06T16:41:47.545Z,101998.14
2018-05-06T16:44:13.389Z,102003.67
2018-05-06T16:46:39.196Z,102001.31
2018-05-06T16:49:04.999Z,102002.58
2018-05-06T16:51:30.813Z,101998.45
2018-05-06T16:53:56.621Z,101997.90
2018-05-06T16:56:22.427Z,101993.32
2018-05-06T16:58:48.360Z,101998.13
2018-05-06T17:01:14.193Z,102001.73
2018-05-06T17:03:40.136Z,101998.38
2018-05-06T17:06:05.968Z,101992.19
2018-05-06T17:08:31.781Z,101998.80
2018-05-06T17:10:57.624Z,101988.08
2018-05-06T17:13:23.428Z,101995.02
2018-05-06T17:15:49.473Z,102003.88
2018-05-06T17:18:15.272Z,101996.52
2018-05-06T17:20:41.076Z,102002.35
2018-05-06T17:23:06.880Z,102000.77
2018-05-06T17:25:32.685Z,101998.30
2018-05-06T17:27:58.517Z,102000.91
2018-05-06T17:30:24.320Z,102002.58
2018-05-06T17:32:50.116Z,102002.39
2018-05-06T17:35:15.916Z,102009.81
2018-05-06T17:37:41.726Z,102004.93
2018-05-06T17:40:07.533Z,102007.16
2018-05-06T17:42:33.386Z,102006.12
2018-05-06T17:44:59.188Z,102005.45
2018-05-06T17:47:25.069Z,102003.59
2018-05-06T17:49:50.871Z,102002.91
2018-05-06T17:52:16.685Z,102010.80
2018-05-06T17:54:43.029Z,102007.02
2018-05-06T17:57:08.828Z,102007.87
2018-05-06T17:59:34.630Z,102012.86
2018-05-06T18:02:00.454Z,102005.70
2018-05-06T18:04:26.308Z,102006.97
2018-05-06T18:06:52.113Z,102009.31
2018-05-06T18:09:17.922Z,102004.97
2018-05-06T18:11:43.741Z,102000.28
2018-05-06T18:14:09.544Z,102000.45
2018-05-06T18:16:35.345Z,102003.89
2018-05-06T18:19:01.182Z,102007.92
2018-05-06T18:21:26.990Z,102005.47
2018-05-06T18:23:53.045Z,102006.80
2018-05-06T18:26:18.892Z,102009.61
2018-05-06T18:28:44.698Z,102012.70
2018-05-06T18:31:10.505Z,102005.58
2018-05-06T18:33:36.308Z,102005.58
2018-05-06T18:36:02.137Z,102011.36
2018-05-06T18:38:27.945Z,102010.03
2018-05-06T18:40:53.785Z,102006.62
2018-05-06T18:43:19.700Z,102008.05
2018-05-06T18:45:45.550Z,101998.89
2018-05-06T18:48:11.390Z,101998.02
2018-05-06T18:50:37.305Z,102002.58
2018-05-06T18:53:03.113Z,102001.87
2018-05-06T18:55:28.975Z,102001.68
2018-05-06T18:57:54.777Z,102001.31
2018-05-06T19:00:20.749Z,102007.14
2018-05-06T19:02:47.057Z,102003.25
2018-05-06T19:05:13.134Z,102007.76
2018-05-06T19:07:38.999Z,102012.69
2018-05-06T19:10:04.886Z,102010.47
2018-05-06T19:12:30.733Z,102011.84
2018-05-06T19:14:56.624Z,102018.66
2018-05-06T19:17:22.512Z,102014.80
2018-05-06T19:19:49.692Z,102008.17
2018-05-06T19:22:18.282Z,102012.28
2018-05-06T19:24:45.735Z,102013.36
2018-05-06T19:27:12.886Z,102011.54
2018-05-06T19:29:39.979Z,102018.05
2018-05-06T19:32:07.200Z,102018.70
2018-05-06T19:34:33.274Z,102011.87
2018-05-06T19:36:59.214Z,102017.08
2018-05-06T19:39:25.070Z,102018.78
2018-05-06T19:41:50.887Z,102022.31
2018-05-06T19:44:16.738Z,102015.95
2018-05-06T19:46:42.561Z,102019.55
2018-05-06T19:49:08.481Z,102019.51
2018-05-06T19:51:34.378Z,102024.91
2018-05-06T19:54:00.386Z,102022.94
2018-05-06T19:56:27.003Z,102021.86
2018-05-06T19:58:52.813Z,102024.61
2018-05-06T20:01:18.637Z,102025.45
2018-05-06T20:03:44.445Z,102023.18
2018-05-06T20:06:10.299Z,102025.38
2018-05-06T20:08:36.108Z,102017.20
2018-05-06T20:11:01.929Z,102023.82
2018-05-06T20:13:27.745Z,102023.05
2018-05-06T20:15:53.592Z,102021.78
2018-05-06T20:18:19.412Z,102023.53
2018-05-06T20:20:45.223Z,102023.94
2018-05-06T20:23:11.028Z,102020.27
2018-05-06T20:25:36.846Z,102020.83
2018-05-06T20:28:02.692Z,102027.85
2018-05-06T20:30:28.604Z,102024.66
2018-05-06T20:32:54.561Z,102026.05
2018-05-06T20:35:20.463Z,102030.50
2018-05-06T20:37:46.272Z,102026.13
2018-05-06T20:40:12.560Z,102022.82
2018-05-06T20:42:38.370Z,102020.20
2018-05-06T20:45:04.189Z,102021.73
2018-05-06T20:47:30.056Z,102025.23
2018-05-06T20:49:55.902Z,102019.67
2018-05-06T20:52:21.983Z,102019.49
2018-05-06T20:54:47.881Z,102023.00
2018-05-06T20:57:13.753Z,102023.00
2018-05-06T20:59:39.671Z,102022.56
2018-05-06T21:02:05.489Z,102028.03
2018-05-06T21:04:31.292Z,102029.60
2018-05-06T21:06:57.096Z,102027.00
2018-05-06T21:09:22.949Z,102027.43
2018-05-06T21:11:48.753Z,102028.20
2018-05-06T21:14:14.564Z,102026.69
2018-05-06T21:16:40.372Z,102023.91
2018-05-06T21:19:06.182Z,102027.77
2018-05-06T21:21:32.025Z,102030.81
2018-05-06T21:23:57.836Z,102024.38
2018-05-06T21:26:23.672Z,102030.47
2018-05-06T21:28:49.485Z,102033.52
2018-05-06T21:31:15.324Z,102031.89
2018-05-06T21:33:41.128Z,102031.58
2018-05-06T21:36:06.936Z,102029.96
2018-05-06T21:38:32.736Z,102024.80
2018-05-06T21:40:58.553Z,102033.56
2018-05-06T21:43:24.422Z,102033.45
2018-05-06T21:45:50.212Z,102036.33
2018-05-06T21:48:16.016Z,102029.30
2018-05-06T21:50:41.829Z,102032.61
2018-05-06T21:53:07.636Z,102036.44
2018-05-06T21:55:33.446Z,102035.89
2018-05-06T21:57:59.253Z,102040.70
2018-05-06T22:00:25.174Z,102037.00
2018-05-06T22:02:50.993Z,102036.33
2018-05-06T22:05:16.799Z,102035.17
2018-05-06T22:07:42.611Z,102035.70
2018-05-06T22:10:08.429Z,102026.46
2018-05-06T22:12:34.241Z,102034.45
2018-05-06T22:15:00.046Z,102024.25
2018-05-06T22:17:25.845Z,102027.50
2018-05-06T22:19:51.653Z,102021.31
2018-05-06T22:22:17.504Z,102029.03
2018-05-06T22:24:43.313Z,102023.53
2018-05-06T22:27:09.126Z,102016.66
2018-05-06T22:29:34.977Z,102016.03
2018-05-06T22:32:00.878Z,102018.59
2018-05-06T22:34:26.677Z,102021.91
2018-05-06T22:36:52.480Z,102015.09
2018-05-06T22:39:19.185Z,102012.73
2018-05-06T22:41:45.031Z,102020.40
2018-05-06T22:44:10.838Z,102017.83
2018-05-06T22:46:36.645Z,102014.02
2018-05-06T22:49:02.457Z,102017.37
2018-05-06T22:51:28.264Z,102017.31
2018-05-06T22:53:54.066Z,102015.75
2018-05-06T22:56:19.875Z,102011.66
2018-05-06T22:58:46.256Z,102010.47
2018-05-06T23:01:12.096Z,102010.37
2018-05-06T23:03:37.897Z,102014.19
2018-05-06T23:06:03.765Z,102015.42
2018-05-06T23:08:29.601Z,102013.73
2018-05-06T23:10:55.462Z,102005.41
2018-05-06T23:13:21.306Z,102006.34
2018-05-06T23:15:47.116Z,102001.78
2018-05-06T23:18:12.928Z,101999.65
2018-05-06T23:20:38.778Z,101997.98
2018-05-06T23:23:04.678Z,101997.38
2018-05-06T23:25:30.484Z,101993.23
2018-05-06T23:27:56.384Z,101993.52
2018-05-06T23:30:22.192Z,101995.45
2018-05-06T23:32:48.000Z,102000.56
2018-05-06T23:35:13.844Z,101996.48
2018-05-06T23:37:39.653Z,101998.31
2018-05-06T23:40:05.463Z,101999.13
2018-05-06T23:42:31.304Z,101996.77
2018-05-06T23:44:57.137Z,102000.11
2018-05-06T23:47:22.989Z,101999.23
2018-05-06T23:49:48.790Z,101992.53
2018-05-06T23:52:14.605Z,102001.29
2018-05-06T23:54:40.444Z,101997.85
2018-05-06T23:57:06.252Z,101997.73
2018-05-06T23:59:32.061Z,101996.59
